createdAt,value
2023-04-08T00:02:26.725Z,12.73
2023-04-08T00:05:16.357Z,15.30
2023-04-08T00:08:05.783Z,14.07
2023-04-08T00:10:55.239Z,17.48
2023-04-08T00:13:44.541Z,17.02
2023-04-08T00:16:35.175Z,14.57
2023-04-08T00:19:25.336Z,15.80
2023-04-08T00:22:15.137Z,13.25
2023-04-08T00:25:06.809Z,16.42
2023-04-08T00:27:56.143Z,15.38
2023-04-08T00:30:45.859Z,18.83
2023-04-08T00:33:36.725Z,13.80
2023-04-08T00:36:27.778Z,12.00
2023-04-08T00:39:17.094Z,16.00
2023-04-08T00:42:06.297Z,18.02
2023-04-08T00:44:55.564Z,18.30
2023-04-08T00:47:44.972Z,17.50
2023-04-08T00:50:35.998Z,17.40
2023-04-08T00:53:25.808Z,19.88
2023-04-08T00:56:15.152Z,17.45
2023-04-08T00:59:06.156Z,16.08
2023-04-08T01:02:07.110Z,19.65
2023-04-08T01:05:03.634Z,18.58
2023-04-08T01:07:54.797Z,20.85
2023-04-08T01:10:46.045Z,16.60
2023-04-08T01:13:41.189Z,16.92
2023-04-08T01:16:31.250Z,15.45
2023-04-08T01:19:30.598Z,17.48
2023-04-08T01:22:29.855Z,16.25
2023-04-08T01:25:23.552Z,17.13
2023-04-08T01:28:19.285Z,18.85
2023-04-08T01:31:09.451Z,23.38
2023-04-08T01:34:01.359Z,16.40
2023-04-08T01:36:52.205Z,19.75
2023-04-08T01:39:42.899Z,18.10
2023-04-08T01:42:35.291Z,16.85
2023-04-08T01:45:26.805Z,23.70
2023-04-08T01:48:17.089Z,13.80
2023-04-08T01:51:08.065Z,18.42
2023-04-08T01:53:59.184Z,18.90
2023-04-08T01:56:48.922Z,20.45
2023-04-08T01:59:41.975Z,16.20
2023-04-08T02:05:23.191Z,20.17
2023-04-08T02:08:13.451Z,27.90
2023-04-08T02:11:02.967Z,15.90
2023-04-08T02:13:53.281Z,19.30
2023-04-08T02:16:51.568Z,19.77
2023-04-08T02:19:49.312Z,17.35
2023-04-08T02:22:45.356Z,13.27
2023-04-08T02:25:39.066Z,17.42
2023-04-08T02:28:30.415Z,24.27
2023-04-08T02:31:21.455Z,13.80
2023-04-08T02:34:12.484Z,18.35
2023-04-08T02:37:04.379Z,21.73
2023-04-08T02:39:54.567Z,16.05
2023-04-08T02:42:43.908Z,18.73
2023-04-08T02:45:36.441Z,19.02
2023-04-08T02:48:25.641Z,14.77
2023-04-08T02:51:14.939Z,19.35
2023-04-08T02:54:05.653Z,19.65
2023-04-08T02:56:55.016Z,23.52
2023-04-08T02:59:44.208Z,14.20
2023-04-08T03:02:33.580Z,15.25
2023-04-08T03:05:23.122Z,15.98
2023-04-08T03:08:12.279Z,13.90
2023-04-08T03:11:02.886Z,15.75
2023-04-08T03:13:52.061Z,20.80
2023-04-08T03:16:41.341Z,14.55
2023-04-08T03:19:30.597Z,18.35
2023-04-08T03:22:20.534Z,15.13
2023-04-08T03:25:11.912Z,17.88
2023-04-08T03:28:03.384Z,15.93
2023-04-08T03:30:52.738Z,12.93
2023-04-08T03:33:41.991Z,14.02
2023-04-08T03:36:31.344Z,12.13
2023-04-08T03:39:21.430Z,12.57
2023-04-08T03:42:10.689Z,13.95
2023-04-08T03:45:01.277Z,15.77
2023-04-08T03:47:50.528Z,14.40
2023-04-08T03:50:39.849Z,12.57
2023-04-08T03:53:29.511Z,15.23
2023-04-08T03:56:21.117Z,14.40
2023-04-08T03:59:13.117Z,18.45
2023-04-08T04:02:06.189Z,10.43
2023-04-08T04:07:44.524Z,10.27
2023-04-08T04:10:33.705Z,11.98
2023-04-08T04:13:22.963Z,14.15
2023-04-08T04:16:12.286Z,14.02
2023-04-08T04:19:05.748Z,11.93
2023-04-08T04:21:54.980Z,14.35
2023-04-08T04:24:50.873Z,10.73
2023-04-08T04:27:40.448Z,12.77
2023-04-08T04:30:33.124Z,12.05
2023-04-08T04:33:24.304Z,10.25
2023-04-08T04:36:14.916Z,12.05
2023-04-08T04:39:04.294Z,15.20
2023-04-08T04:41:53.464Z,20.92
2023-04-08T04:44:42.630Z,14.25
2023-04-08T04:47:32.841Z,13.18
2023-04-08T04:50:22.257Z,13.38
2023-04-08T04:53:12.779Z,17.80
2023-04-08T04:56:02.548Z,14.07
2023-04-08T04:58:51.984Z,11.63
2023-04-08T05:01:41.732Z,20.10
2023-04-08T05:04:31.027Z,12.25
2023-04-08T05:07:20.329Z,16.52
2023-04-08T05:10:12.544Z,14.52
2023-04-08T05:13:01.974Z,18.13
2023-04-08T05:15:51.143Z,15.43
2023-04-08T05:18:40.450Z,19.95
2023-04-08T05:21:29.686Z,13.65
2023-04-08T05:24:18.973Z,12.35
2023-04-08T05:27:09.632Z,12.70
2023-04-08T05:29:58.981Z,19.38
2023-04-08T05:32:48.211Z,14.68
2023-04-08T05:35:37.682Z,11.95
2023-04-08T05:38:28.408Z,16.52
2023-04-08T05:41:18.484Z,19.23
2023-04-08T05:44:09.126Z,11.68
2023-04-08T05:46:58.510Z,11.27
2023-04-08T05:49:48.889Z,10.95
2023-04-08T05:52:38.916Z,13.32
2023-04-08T05:55:28.579Z,13.63
2023-04-08T05:58:17.731Z,10.88
2023-04-08T06:01:08.398Z,15.40
2023-04-08T06:03:57.891Z,12.20
2023-04-08T06:06:47.247Z,12.43
2023-04-08T06:09:38.239Z,14.15
2023-04-08T06:12:27.430Z,12.45
2023-04-08T06:15:16.743Z,15.85
2023-04-08T06:18:07.363Z,10.30
2023-04-08T06:20:56.630Z,12.27
2023-04-08T06:23:46.096Z,12.40
2023-04-08T06:26:35.272Z,12.15
2023-04-08T06:29:24.817Z,10.55
2023-04-08T06:32:14.383Z,11.65
2023-04-08T06:35:05.266Z,12.18
2023-04-08T06:37:54.455Z,9.27
2023-04-08T06:40:43.650Z,10.82
2023-04-08T06:43:32.937Z,11.93
2023-04-08T06:46:22.359Z,12.98
2023-04-08T06:49:11.575Z,15.38
2023-04-08T06:52:02.201Z,10.85
2023-04-08T06:54:51.480Z,14.02
2023-04-08T06:57:43.675Z,16.00
2023-04-08T07:00:32.827Z,10.60
2023-04-08T07:03:22.490Z,9.23
2023-04-08T07:06:11.903Z,11.68
2023-04-08T07:09:02.531Z,15.20
2023-04-08T07:11:51.738Z,13.13
2023-04-08T07:14:41.169Z,8.05
2023-04-08T07:17:30.724Z,11.95
2023-04-08T07:20:20.057Z,15.30
2023-04-08T07:23:09.221Z,10.15
2023-04-08T07:26:04.681Z,9.13
2023-04-08T07:28:53.802Z,8.57
2023-04-08T07:31:44.760Z,8.95
2023-04-08T07:34:37.148Z,11.57
2023-04-08T07:37:26.487Z,8.57
2023-04-08T07:40:16.119Z,6.47
2023-04-08T07:43:06.906Z,8.95
2023-04-08T07:46:02.833Z,7.95
2023-04-08T07:48:53.206Z,7.95
2023-04-08T07:51:42.517Z,8.23
2023-04-08T07:54:34.345Z,7.53
2023-04-08T07:57:23.514Z,7.78
2023-04-08T08:00:21.013Z,7.85
2023-04-08T08:03:10.605Z,9.90
2023-04-08T08:05:59.932Z,7.70
2023-04-08T08:08:49.089Z,6.47
2023-04-08T08:11:41.461Z,6.40
2023-04-08T08:14:30.657Z,7.10
2023-04-08T08:17:21.311Z,7.18
2023-04-08T08:20:11.653Z,4.60
2023-04-08T08:23:01.029Z,7.05
2023-04-08T08:25:50.312Z,5.35
2023-04-08T08:28:40.434Z,6.35
2023-04-08T08:31:30.677Z,4.88
2023-04-08T08:34:31.587Z,5.70
2023-04-08T08:37:22.065Z,6.55
2023-04-08T08:40:12.873Z,7.68
2023-04-08T08:43:02.503Z,7.78
2023-04-08T08:45:51.821Z,5.60
2023-04-08T08:48:41.463Z,7.13
2023-04-08T08:51:32.980Z,7.28
2023-04-08T08:54:22.332Z,7.80
2023-04-08T08:57:20.019Z,7.60
2023-04-08T09:00:11.017Z,6.05
2023-04-08T09:03:17.925Z,4.50
2023-04-08T09:06:07.418Z,4.93
2023-04-08T09:08:58.093Z,6.35
2023-04-08T09:11:48.743Z,5.28
2023-04-08T09:14:38.387Z,4.70
2023-04-08T09:17:35.357Z,4.88
2023-04-08T09:20:25.812Z,6.35
2023-04-08T09:23:14.991Z,6.85
2023-04-08T09:26:10.554Z,8.30
2023-04-08T09:29:11.090Z,6.53
2023-04-08T09:32:08.122Z,7.70
2023-04-08T09:34:57.473Z,8.07
2023-04-08T09:37:46.794Z,6.50
2023-04-08T09:40:37.772Z,7.68
2023-04-08T09:43:28.561Z,5.70
2023-04-08T09:46:19.698Z,5.32
2023-04-08T09:49:13.929Z,5.32
2023-04-08T09:52:09.769Z,5.40
2023-04-08T09:55:04.159Z,5.25
2023-04-08T09:57:59.011Z,3.72
2023-04-08T10:00:53.524Z,4.57
2023-04-08T10:03:51.489Z,6.88
2023-04-08T10:06:42.844Z,3.78
2023-04-08T10:09:32.970Z,5.95
2023-04-08T10:12:22.451Z,6.85
2023-04-08T10:15:29.430Z,3.50
2023-04-08T10:18:35.528Z,4.93
2023-04-08T10:21:36.225Z,8.35
2023-04-08T10:24:26.079Z,3.97
2023-04-08T10:27:42.192Z,5.97
2023-04-08T10:30:44.941Z,4.00
2023-04-08T10:33:37.823Z,9.13
2023-04-08T10:36:29.436Z,7.30
2023-04-08T10:39:19.283Z,4.57
2023-04-08T10:42:10.708Z,5.95
2023-04-08T10:45:03.494Z,12.35
2023-04-08T10:47:52.846Z,8.95
2023-04-08T10:50:43.591Z,9.60
2023-04-08T10:53:35.830Z,8.35
2023-04-08T10:56:26.029Z,11.02
2023-04-08T10:59:17.798Z,8.10
2023-04-08T11:02:07.241Z,10.35
2023-04-08T11:04:56.463Z,10.48
2023-04-08T11:07:47.066Z,8.63
2023-04-08T11:10:39.898Z,9.68
2023-04-08T11:16:18.814Z,10.98
2023-04-08T11:19:09.035Z,13.23
2023-04-08T11:21:58.333Z,9.63
2023-04-08T11:24:49.240Z,14.27
2023-04-08T11:27:39.688Z,10.95
2023-04-08T11:30:29.949Z,13.32
2023-04-08T11:33:19.155Z,11.75
2023-04-08T11:36:09.730Z,11.68
2023-04-08T11:38:59.056Z,14.50
2023-04-08T11:41:50.178Z,14.02
2023-04-08T11:44:39.520Z,11.70
2023-04-08T11:47:33.594Z,12.45
2023-04-08T11:50:30.075Z,16.63
2023-04-08T11:53:21.010Z,10.65
2023-04-08T11:56:21.418Z,12.77
2023-04-08T11:59:12.107Z,11.75
2023-04-08T12:02:02.251Z,11.52
2023-04-08T12:04:52.472Z,12.65
2023-04-08T12:07:41.905Z,12.25
2023-04-08T12:10:31.645Z,15.98
2023-04-08T12:13:21.043Z,14.55
2023-04-08T12:16:12.569Z,11.23
2023-04-08T12:19:02.065Z,15.15
2023-04-08T12:21:51.355Z,16.42
2023-04-08T12:24:40.482Z,12.93
2023-04-08T12:27:29.691Z,15.20
2023-04-08T12:30:19.328Z,14.43
2023-04-08T12:33:09.934Z,14.63
2023-04-08T12:35:59.616Z,17.98
2023-04-08T12:38:49.416Z,12.05
2023-04-08T12:41:38.818Z,15.45
2023-04-08T12:44:28.395Z,24.52
2023-04-08T12:47:18.454Z,15.02
2023-04-08T12:50:10.747Z,16.13
2023-04-08T12:53:00.119Z,13.70
2023-04-08T12:55:50.194Z,12.07
2023-04-08T12:58:39.607Z,24.65
2023-04-08T13:01:28.970Z,9.63
2023-04-08T13:04:19.938Z,15.35
2023-04-08T13:07:10.557Z,11.63
2023-04-08T13:09:59.748Z,12.23
2023-04-08T13:12:49.051Z,20.27
2023-04-08T13:15:38.544Z,13.35
2023-04-08T13:18:27.814Z,17.38
2023-04-08T13:21:17.136Z,13.43
2023-04-08T13:24:08.238Z,13.93
2023-04-08T13:26:57.687Z,12.88
2023-04-08T13:29:46.960Z,10.43
2023-04-08T13:32:36.660Z,15.52
2023-04-08T13:35:26.968Z,17.13
2023-04-08T13:38:16.285Z,12.52
2023-04-08T13:41:07.504Z,13.68
2023-04-08T13:43:56.890Z,12.57
2023-04-08T13:46:46.234Z,15.00
2023-04-08T13:49:35.478Z,11.55
2023-04-08T13:52:24.690Z,14.30
2023-04-08T13:55:13.953Z,13.45
2023-04-08T13:58:11.295Z,14.40
2023-04-08T14:01:07.065Z,10.73
2023-04-08T14:03:56.482Z,16.05
2023-04-08T14:06:45.757Z,12.05
2023-04-08T14:09:35.899Z,11.32
2023-04-08T14:12:25.096Z,13.48
2023-04-08T14:15:15.773Z,12.45
2023-04-08T14:18:05.093Z,16.83
2023-04-08T14:20:54.329Z,17.15
2023-04-08T14:23:43.503Z,17.73
2023-04-08T14:26:35.874Z,19.20
2023-04-08T14:29:26.621Z,18.33
2023-04-08T14:32:18.278Z,15.43
2023-04-08T14:35:08.886Z,14.55
2023-04-08T14:37:58.274Z,15.27
2023-04-08T14:40:47.530Z,16.48
2023-04-08T14:43:36.818Z,17.60
2023-04-08T14:46:29.165Z,12.70
2023-04-08T14:49:20.079Z,13.73
2023-04-08T14:52:09.334Z,13.60
2023-04-08T14:54:58.547Z,17.88
2023-04-08T14:57:47.917Z,16.52
2023-04-08T15:00:37.842Z,20.67
2023-04-08T15:03:27.626Z,15.68
2023-04-08T15:06:21.927Z,15.02
2023-04-08T15:09:11.338Z,18.85
2023-04-08T15:12:01.411Z,18.02
2023-04-08T15:14:51.016Z,15.90
2023-04-08T15:17:40.288Z,15.30
2023-04-08T15:20:29.600Z,14.75
2023-04-08T15:23:20.218Z,13.70
2023-04-08T15:26:10.005Z,15.90
2023-04-08T15:28:59.920Z,12.70
2023-04-08T15:31:49.145Z,17.48
2023-04-08T15:34:38.372Z,15.18
2023-04-08T15:37:27.882Z,16.70
2023-04-08T15:40:19.103Z,13.35
2023-04-08T15:43:10.246Z,17.92
2023-04-08T15:45:59.498Z,14.35
2023-04-08T15:48:48.822Z,15.05
2023-04-08T15:51:38.273Z,15.80
2023-04-08T15:54:29.456Z,15.57
2023-04-08T15:57:26.542Z,14.65
2023-04-08T16:00:16.840Z,17.60
2023-04-08T16:03:08.964Z,16.20
2023-04-08T16:05:58.536Z,16.50
2023-04-08T16:08:48.745Z,12.15
2023-04-08T16:11:38.521Z,17.05
2023-04-08T16:14:29.288Z,14.65
2023-04-08T16:17:18.657Z,17.02
2023-04-08T16:20:09.181Z,15.63
2023-04-08T16:22:58.397Z,24.25
2023-04-08T16:25:47.858Z,16.45
2023-04-08T16:28:39.592Z,16.90
2023-04-08T16:34:20.324Z,14.32
2023-04-08T16:37:09.624Z,22.73
2023-04-08T16:39:59.066Z,14.05
2023-04-08T16:42:48.458Z,12.90
2023-04-08T16:45:39.217Z,18.67
2023-04-08T16:48:29.871Z,12.18
2023-04-08T16:51:19.142Z,12.82
2023-04-08T16:54:08.616Z,15.63
2023-04-08T16:56:58.304Z,14.85
2023-04-08T16:59:47.658Z,13.93
2023-04-08T17:02:37.199Z,14.13
2023-04-08T17:05:28.473Z,12.70
2023-04-08T17:08:18.857Z,17.08
2023-04-08T17:11:10.458Z,11.88
2023-04-08T17:14:00.531Z,15.43
2023-04-08T17:16:57.111Z,13.88
2023-04-08T17:19:52.054Z,15.32
2023-04-08T17:22:43.828Z,15.75
2023-04-08T17:25:33.084Z,14.02
2023-04-08T17:28:24.718Z,14.68
2023-04-08T17:31:13.931Z,14.57
2023-04-08T17:34:06.060Z,17.00
2023-04-08T17:36:55.518Z,16.10
2023-04-08T17:39:48.946Z,12.55
2023-04-08T17:42:40.493Z,13.82
2023-04-08T17:45:29.660Z,17.30
2023-04-08T17:48:21.205Z,14.40
2023-04-08T17:51:10.424Z,18.60
2023-04-08T17:53:59.729Z,16.58
2023-04-08T17:56:50.574Z,15.98
2023-04-08T17:59:39.763Z,18.00
2023-04-08T18:02:29.221Z,15.77
2023-04-08T18:05:18.606Z,13.27
2023-04-08T18:08:07.943Z,14.70
2023-04-08T18:10:57.154Z,12.43
2023-04-08T18:13:49.404Z,14.27
2023-04-08T18:16:38.808Z,10.98
2023-04-08T18:19:28.103Z,15.07
2023-04-08T18:22:17.657Z,10.65
2023-04-08T18:25:07.771Z,16.30
2023-04-08T18:27:56.968Z,16.42
2023-04-08T18:30:51.601Z,13.48
2023-04-08T18:33:40.863Z,15.77
2023-04-08T18:36:30.053Z,15.07
2023-04-08T18:39:19.273Z,12.98
2023-04-08T18:42:08.498Z,17.05
2023-04-08T18:44:58.016Z,14.80
2023-04-08T18:47:48.644Z,12.70
2023-04-08T18:50:37.833Z,11.27
2023-04-08T18:53:27.158Z,11.68
2023-04-08T18:56:17.556Z,12.15
2023-04-08T18:59:07.412Z,13.38
2023-04-08T19:01:57.320Z,8.55
2023-04-08T19:04:48.063Z,11.20
2023-04-08T19:07:37.303Z,14.95
2023-04-08T19:10:26.553Z,14.18
2023-04-08T19:13:15.902Z,11.43
2023-04-08T19:16:05.443Z,12.15
2023-04-08T19:18:54.972Z,10.95
2023-04-08T19:21:45.581Z,9.85
2023-04-08T19:24:34.859Z,14.82
2023-04-08T19:27:24.056Z,13.18
2023-04-08T19:30:13.922Z,13.13
2023-04-08T19:33:03.126Z,10.75
2023-04-08T19:35:52.416Z,15.25
2023-04-08T19:38:43.003Z,8.10
2023-04-08T19:41:32.274Z,11.20
2023-04-08T19:44:21.515Z,17.63
2023-04-08T19:47:11.028Z,14.45
2023-04-08T19:50:00.444Z,13.20
2023-04-08T19:52:49.753Z,12.57
2023-04-08T19:55:40.435Z,12.98
2023-04-08T19:58:30.996Z,11.02
2023-04-08T20:01:20.329Z,7.32
2023-04-08T20:04:09.634Z,16.42
2023-04-08T20:07:01.296Z,10.57
2023-04-08T20:09:50.548Z,27.17
2023-04-08T20:12:42.022Z,13.65
2023-04-08T20:15:31.225Z,16.85
2023-04-08T20:18:20.400Z,9.13
2023-04-08T20:21:13.923Z,9.00
2023-04-08T20:24:03.297Z,12.77
2023-04-08T20:26:53.543Z,14.98
2023-04-08T20:29:44.162Z,9.07
2023-04-08T20:32:33.449Z,11.80
2023-04-08T20:35:22.993Z,12.65
2023-04-08T20:38:12.262Z,11.07
2023-04-08T20:41:01.540Z,7.25
2023-04-08T20:43:53.614Z,8.90
2023-04-08T20:46:46.352Z,11.40
2023-04-08T20:49:40.025Z,9.63
2023-04-08T20:52:29.461Z,15.80
2023-04-08T20:55:18.868Z,11.10
2023-04-08T20:58:08.151Z,10.45
2023-04-08T21:00:59.797Z,9.90
2023-04-08T21:03:50.897Z,11.05
2023-04-08T21:06:40.764Z,9.75
2023-04-08T21:09:29.934Z,10.38
2023-04-08T21:12:19.168Z,9.00
2023-04-08T21:15:09.835Z,11.77
2023-04-08T21:17:59.185Z,10.13
2023-04-08T21:20:50.161Z,10.60
2023-04-08T21:23:39.586Z,12.80
2023-04-08T21:26:28.818Z,12.25
2023-04-08T21:29:18.035Z,16.13
2023-04-08T21:32:07.659Z,7.20
2023-04-08T21:34:58.699Z,12.73
2023-04-08T21:37:49.413Z,12.02
2023-04-08T21:40:38.592Z,14.18
2023-04-08T21:43:28.634Z,8.25
2023-04-08T21:46:17.971Z,8.20
2023-04-08T21:49:07.197Z,9.70
2023-04-08T21:51:59.484Z,8.82
2023-04-08T21:54:53.570Z,10.80
2023-04-08T21:57:49.260Z,14.38
2023-04-08T22:00:39.009Z,10.65
2023-04-08T22:03:29.680Z,12.85
2023-04-08T22:06:28.975Z,9.23
2023-04-08T22:09:26.204Z,11.07
2023-04-08T22:12:18.668Z,7.90
2023-04-08T22:15:10.107Z,7.90
2023-04-08T22:18:01.934Z,7.78
2023-04-08T22:20:51.452Z,11.00
2023-04-08T22:23:40.983Z,8.52
2023-04-08T22:26:33.376Z,9.55
2023-04-08T22:29:24.622Z,7.72
2023-04-08T22:32:15.717Z,7.32
2023-04-08T22:35:05.875Z,9.52
2023-04-08T22:37:57.268Z,6.47
2023-04-08T22:40:46.660Z,8.63
2023-04-08T22:43:36.610Z,10.05
2023-04-08T22:46:27.594Z,6.40
2023-04-08T22:49:17.014Z,8.18
2023-04-08T22:52:06.306Z,8.23
2023-04-08T22:54:55.631Z,12.02
2023-04-08T22:57:46.557Z,10.02
2023-04-08T23:00:38.054Z,7.25
2023-04-08T23:03:38.094Z,8.65
2023-04-08T23:06:28.956Z,7.13
2023-04-08T23:09:18.236Z,8.18
2023-04-08T23:12:07.702Z,6.72
2023-04-08T23:14:59.370Z,5.93
2023-04-08T23:17:48.632Z,8.13
2023-04-08T23:20:39.448Z,7.75
2023-04-08T23:23:28.789Z,4.78
2023-04-08T23:26:21.371Z,6.47
2023-04-08T23:29:10.821Z,16.35
2023-04-08T23:32:00.143Z,5.28
2023-04-08T23:34:49.418Z,7.40
2023-04-08T23:37:39.985Z,4.88
2023-04-08T23:40:29.269Z,6.35
2023-04-08T23:43:18.441Z,6.93
2023-04-08T23:46:09.504Z,5.75
2023-04-08T23:48:58.764Z,8.90
2023-04-08T23:51:47.941Z,5.72
2023-04-08T23:54:38.470Z,6.18
2023-04-08T23:57:27.684Z,6.22
